• Join FlightAware (Why Join?)
  • Login
  • US Flag 
08:40AM EDT


 

Airport Tracker/Info


-or-


 

Live Flight TrackerFlight Track Log ✈ EJA646 ✈ 14-Apr-2013 ✈ KVPC - KCRE

Flight Track Log - Related Links

Times and Time Zones

All times are in EDT time to prevent confusion due to time zone crossing. See the EJA646 flight status page for this flight to view local times or setup timezone preferences in your user account.

Time Position Orientation Groundspeed Altitude Reporting Facility
EDT Latitude Longitude Course Direction KTS MPH feet Rate Location/Type
04:11PM 34.0833 -84.8167 90° East 165 190 3,900  Level Atlanta TRACON
04:12PM 34.0833 -84.7500 90° East 205 236 7,700 2,460 Climbing Atlanta TRACON
04:13PM 34.0667 -84.6667 104° East 260 299 8,900 720 Climbing Atlanta TRACON
04:14PM 34.0500 -84.6000 107° East 277 319 9,100  Climbing Atlanta TRACON
04:15PM 34.0500 -84.5000 90° East 268 308 9,000 -60 Descending Atlanta TRACON
04:16PM 34.0333 -84.4167 104° East 257 296 9,000  Level Atlanta TRACON
04:17PM 34.0333 -84.3333 90° East 252 290 9,000 60 Level Atlanta TRACON
04:18PM 34.0167 -84.2500 104° East 226 260 9,200 480 Climbing Atlanta TRACON
04:19PM 34.0167 -84.1833 90° East 242 278 10,000 240 Climbing Atlanta TRACON
04:21PM 33.9653 -84.0289 112° Southeast 290 334 10,000 60 Level Atlanta Center
04:22PM 33.9258 -83.9386 118° Southeast 303 349 10,300 1,620 Climbing Atlanta Center
04:23PM 33.8900 -83.8486 116° Southeast 298 343 13,300 2,280 Climbing Atlanta Center
04:24PM 33.8461 -83.7461 117° Southeast 303 349 14,900 1,800 Climbing Atlanta Center
04:25PM 33.8042 -83.6489 117° Southeast 317 365 16,900 1,920 Climbing Atlanta Center
04:26PM 33.7600 -83.5492 118° Southeast 332 382 18,800 1,920 Climbing Atlanta Center
04:27PM 33.7136 -83.4469 119° Southeast 337 388 20,800 1,500 Climbing Atlanta Center
04:28PM 33.6650 -83.3400 119° Southeast 347 399 21,800 1,080 Climbing Atlanta Center
04:29PM 33.6619 -83.2078 92° East 362 417 23,000 1,200 Climbing Atlanta Center
04:30PM 33.6672 -83.0703 87° East 379 436 24,200 1,260 Climbing Atlanta Center
04:31PM 33.6744 -82.9306 86° East 398 458 25,600 1,200 Climbing Atlanta Center
04:32PM 33.6794 -82.7881 88° East 423 487 26,700 1,020 Climbing Atlanta Center
04:33PM 33.6842 -82.6608 87° East 423 487 27,700 960 Climbing Atlanta Center
04:35PM 33.6994 -82.3283 87° East 448 516 30,000 660 Climbing Jacksonville Center
04:36PM 33.7072 -82.1786 86° East 448 516 30,000  Level Jacksonville Center
04:37PM 33.7269 -82.0261 81° East 448 516 30,000  Level Jacksonville Center
04:38PM 33.7489 -81.8708 80° East 459 528 30,000  Level Jacksonville Center
04:39PM 33.7703 -81.7133 81° East 472 543 30,000  Level Jacksonville Center
04:40PM 33.7917 -81.5556 81° East 472 543 30,000  Level Jacksonville Center
04:41PM 33.8128 -81.3928 81° East 478 550 30,000 -900 Level Jacksonville Center
04:42PM 33.8358 -81.2297 80° East 485 558 28,200 -1,920 Descending Jacksonville Center
04:43PM 33.8567 -81.0694 81° East 485 558 26,200 -2,160 Descending Jacksonville Center
04:44PM 33.8581 -80.8919 89° East 485 558 23,900 -2,160 Descending Jacksonville Center
04:45PM 33.8556 -80.7394 91° East 472 543 21,900 -2,040 Descending Jacksonville Center
04:46PM 33.8528 -80.5869 91° East 467 537 19,900 -1,500 Descending Jacksonville Center
04:47PM 33.8503 -80.4419 91° East 454 522 19,000 -480 Descending Jacksonville Center
04:48PM 33.8494 -80.3019 90° East 432 497 19,000  Level Jacksonville Center
04:49PM 33.8464 -80.1594 91° East 419 482 19,000  Level Jacksonville Center
04:50PM 33.8433 -80.0219 91° East 419 482 19,000 -240 Level Jacksonville Center
04:51PM 33.8403 -79.8847 91° East 414 476 18,600 -1,020 Descending Jacksonville Center
04:52PM 33.8369 -79.7472 92° East 414 476 17,000 -1,800 Descending Jacksonville Center
04:53PM 33.8358 -79.6222 91° East 395 455 15,000 -1,980 Descending Jacksonville Center
04:54PM 33.8347 -79.5022 91° East 379 436 13,100 -1,800 Descending Jacksonville Center
04:55PM 33.8256 -79.3953 96° East 366 421 11,400 -1,440 Descending Jacksonville Center
04:56PM 33.8164 -79.2931 96° East 336 387 10,300 -1,800 Descending Jacksonville Center
04:57PM 33.7828 -79.2094 116° Southeast 292 336 7,900 -2,580 Descending Jacksonville Center
04:58PM 33.7492 -79.1308 117° Southeast 277 319 5,200 -2,040 Descending Jacksonville Center
04:59PM 33.7197 -79.0597 116° Southeast 252 290 3,900 -660 Descending Jacksonville Center
05:00PM 33.6950 -78.9986 116° Southeast 223 257 3,900  Level Jacksonville Center
05:02PM 33.7691 -78.8245 90° East  Level Estimated
05:09PM 33.8000 -78.7167 90° East  Level FlightAware Approximate
05:10PM 33.8117 -78.7239 90° East  Level Estimated
05:11PM 33.8117 -78.7239 90° East  Level Estimated
05:12PM 33.8117 -78.7239 90° East  Level Estimated